Time;durP1;ratioP1;P1;durP2;ratioP2;P2;SDS_P1;SDS_P2;PMS_P1;PMS_P2;Temp;Humidity;BMP_temperature;BMP_pressure;BME280_temperature;BME280_humidity;BME280_pressure;Samples;Min_cycle;Max_cycle;Signal;HPM_P1;HPM_P2
2023/10/26 00:00:27;;;;;;;;;;;;;;;13.60;66.41;98027.19;1088637;47;856;-80
2023/10/26 00:01:33;;;;;;;;;;;;;;;13.59;66.14;98019.34;1088647;54;981;-81
2023/10/26 00:04:24;;;;;;;;;;;;;;;13.60;65.87;98018.31;1088626;47;851;-83
2023/10/26 00:05:25;;;;;;;;;;;;;;;13.51;66.20;98015.84;1088541;47;972;-83
2023/10/26 00:06:28;;;;;;;;;;;;;;;13.54;65.97;98012.75;1088456;54;1849;-82
2023/10/26 00:07:29;;;;;;;;;;;;;;;13.55;65.89;98032.38;1088643;47;917;-84
2023/10/26 00:08:40;;;;;;;;;;;;;;;13.56;66.03;98026.78;1088510;54;966;-83
2023/10/26 00:09:45;;;;;;;;;;;;;;;13.54;65.64;98028.84;1088509;54;1067;-82
2023/10/26 00:10:49;;;;;;;;;;;;;;;13.59;65.85;98024.72;1088519;47;995;-82
2023/10/26 00:11:54;;;;;;;;;;;;;;;13.50;66.05;98027.66;1088494;54;1090;-83
2023/10/26 00:13:05;;;;;;;;;;;;;;;13.60;65.78;98034.41;1088362;47;1044;-82
2023/10/26 00:14:15;;;;;;;;;;;;;;;13.59;65.85;98027.41;1088663;54;1184;-83
2023/10/26 00:15:19;;;;;;;;;;;;;;;13.62;65.74;98033.16;1088559;47;985;-84
2023/10/26 00:22:44;;;;;;;;;;;;;;;13.56;65.76;98036.69;1088362;54;1194;-80
2023/10/26 00:23:45;;;;;;;;;;;;;;;13.60;65.65;98045.16;1088323;54;1358;-81
2023/10/26 00:24:50;;;;;;;;;;;;;;;13.62;65.49;98037.69;1088229;54;1142;-83
2023/10/26 00:25:51;;;;;;;;;;;;;;;13.48;65.89;98037.75;1088184;47;1855;-80
2023/10/26 00:26:57;;;;;;;;;;;;;;;13.54;65.93;98041.47;1088172;47;1259;-80
2023/10/26 00:27:58;;;;;;;;;;;;;;;13.52;65.93;98024.75;1088186;47;1137;-79
2023/10/26 00:29:02;;;;;;;;;;;;;;;13.52;65.67;98030.91;1088330;47;941;-81
2023/10/26 00:30:04;;;;;;;;;;;;;;;13.55;65.81;98032.38;1088259;54;1012;-82
2023/10/26 00:31:07;;;;;;;;;;;;;;;13.58;65.55;98037.31;1087328;54;1123;-82
2023/10/26 00:32:08;;;;;;;;;;;;;;;13.63;65.45;98031.28;1087541;47;1098;-82
2023/10/26 00:33:11;;;;;;;;;;;;;;;13.55;65.68;98032.38;1087912;47;1083;-82
2023/10/26 00:34:13;;;;;;;;;;;;;;;13.52;65.50;98025.56;1088008;54;1066;-82
2023/10/26 00:35:16;;;;;;;;;;;;;;;13.50;65.76;98027.66;1087912;47;1082;-80
2023/10/26 00:36:17;;;;;;;;;;;;;;;13.52;65.56;98025.56;1088253;54;1352;-81
2023/10/26 00:37:22;;;;;;;;;;;;;;;13.57;65.88;98023.06;1088507;47;1114;-81
2023/10/26 00:38:22;;;;;;;;;;;;;;;13.50;66.06;98026.81;1087844;47;1011;-81
2023/10/26 00:39:26;;;;;;;;;;;;;;;13.49;65.80;98027.84;1087442;47;1182;-82
2023/10/26 00:40:27;;;;;;;;;;;;;;;13.43;66.14;98026.81;1087431;54;1273;-81
2023/10/26 00:41:30;;;;;;;;;;;;;;;13.52;65.87;98025.56;1087259;54;1107;-82
2023/10/26 00:42:36;;;;;;;;;;;;;;;13.59;65.64;98024.72;1087359;54;1184;-81
2023/10/26 00:43:39;;;;;;;;;;;;;;;13.57;66.02;98027.59;1087105;47;1181;-81
2023/10/26 00:44:40;;;;;;;;;;;;;;;13.64;65.58;98030.25;1087071;47;1118;-82
2023/10/26 00:45:41;;;;;;;;;;;;;;;13.53;65.73;98027.19;1087490;54;1647;-80
2023/10/26 00:46:44;;;;;;;;;;;;;;;13.54;65.81;98022.66;1087120;47;1353;-82
2023/10/26 00:47:45;;;;;;;;;;;;;;;13.65;65.82;98030.03;1087871;47;1106;-82
2023/10/26 00:48:48;;;;;;;;;;;;;;;13.64;65.94;98024.88;1087678;54;1089;-81
2023/10/26 00:49:49;;;;;;;;;;;;;;;13.60;65.97;98032.53;1086894;54;1174;-80
2023/10/26 00:50:52;;;;;;;;;;;;;;;13.57;66.03;98025.75;1087225;47;1110;-79
2023/10/26 00:51:56;;;;;;;;;;;;;;;13.52;66.07;98025.56;1087983;54;1181;-78
2023/10/26 00:53:00;;;;;;;;;;;;;;;13.57;66.32;98019.53;1087815;47;1082;-81
2023/10/26 00:54:01;;;;;;;;;;;;;;;13.54;66.16;98026.16;1087713;54;1074;-78
2023/10/26 00:55:06;;;;;;;;;;;;;;;13.62;66.05;98030.47;1087784;54;1196;-82
2023/10/26 00:56:07;;;;;;;;;;;;;;;13.63;65.76;98026.75;1087537;54;1398;-81
2023/10/26 00:57:11;;;;;;;;;;;;;;;13.49;66.00;98031.38;1087480;47;1159;-81
2023/10/26 00:58:16;;;;;;;;;;;;;;;13.51;66.22;98033.81;1087687;54;1089;-81
2023/10/26 00:59:20;;;;;;;;;;;;;;;13.47;66.14;98036.13;1087493;47;1477;-82
2023/10/26 01:00:21;;;;;;;;;;;;;;;13.46;66.11;98034.47;1087128;47;1201;-82
2023/10/26 01:01:25;;;;;;;;;;;;;;;13.48;66.47;98035.09;1087315;54;1050;-82
2023/10/26 01:02:26;;;;;;;;;;;;;;;13.56;65.96;98026.78;1087587;54;1449;-81
2023/10/26 01:03:31;;;;;;;;;;;;;;;13.55;66.28;98033.19;1087222;47;948;-81
2023/10/26 01:04:33;;;;;;;;;;;;;;;13.61;65.97;98026.16;1088245;54;1163;-82
2023/10/26 01:05:37;;;;;;;;;;;;;;;13.47;66.34;98021.84;1088411;47;963;-84
2023/10/26 01:06:37;;;;;;;;;;;;;;;13.48;66.16;98028.88;1088327;54;1848;-84
2023/10/26 01:07:41;;;;;;;;;;;;;;;13.54;65.92;98028.84;1088474;47;982;-84
2023/10/26 01:08:42;;;;;;;;;;;;;;;13.48;66.16;98029.72;1088258;54;1018;-81
2023/10/26 01:09:53;;;;;;;;;;;;;;;13.58;65.66;98034.63;1088511;47;943;-84
2023/10/26 01:10:54;;;;;;;;;;;;;;;13.48;65.68;98024.34;1088461;54;1009;-84
2023/10/26 01:12:05;;;;;;;;;;;;;;;13.50;65.64;98024.97;1088453;54;1094;-81
2023/10/26 01:13:06;;;;;;;;;;;;;;;13.61;65.62;98033.34;1088545;54;1016;-81
2023/10/26 01:14:12;;;;;;;;;;;;;;;13.60;65.56;98027.19;1088202;47;1210;-81
2023/10/26 01:15:13;;;;;;;;;;;;;;;13.64;65.48;98020.34;1088245;54;1217;-82
2023/10/26 01:16:24;;;;;;;;;;;;;;;13.55;65.46;98027.81;1088567;47;1379;-82
2023/10/26 01:17:25;;;;;;;;;;;;;;;13.47;65.54;98028.06;1088981;47;965;-84
2023/10/26 01:18:30;;;;;;;;;;;;;;;13.50;65.82;98030.34;1088680;47;999;-84
2023/10/26 01:19:41;;;;;;;;;;;;;;;13.45;65.90;98030.13;1088950;47;993;-83
2023/10/26 01:20:47;;;;;;;;;;;;;;;13.48;65.65;98034.25;1088011;47;1212;-81
2023/10/26 01:21:59;;;;;;;;;;;;;;;13.52;65.66;98035.47;1088554;47;893;-83
2023/10/26 01:23:03;;;;;;;;;;;;;;;13.57;65.78;98025.75;1088730;54;937;-82
2023/10/26 01:24:22;;;;;;;;;;;;;;;13.52;65.98;98020.19;1088689;54;890;-83
2023/10/26 01:47:42;;;;;;;;;;;;;;;13.45;65.74;98016.72;1088909;54;777;-80
2023/10/26 01:48:48;;;;;;;;;;;;;;;13.41;65.93;98018.19;1088589;47;1016;-78
2023/10/26 01:49:52;;;;;;;;;;;;;;;13.46;65.73;98021.03;1088782;54;1219;-78
2023/10/26 01:50:53;;;;;;;;;;;;;;;13.49;65.85;98019.78;1088780;54;1039;-78
2023/10/26 01:51:56;;;;;;;;;;;;;;;13.48;65.89;98023.50;1088759;47;999;-79
2023/10/26 01:52:58;;;;;;;;;;;;;;;13.41;65.74;98013.63;1088799;47;1022;-78
2023/10/26 01:53:58;;;;;;;;;;;;;;;13.36;66.21;98020.63;1088727;54;1053;-81
2023/10/26 01:55:02;;;;;;;;;;;;;;;13.42;65.82;98017.13;1088755;47;1482;-81
2023/10/26 01:56:03;;;;;;;;;;;;;;;13.53;65.74;98021.03;1088902;47;1638;-80
2023/10/26 01:57:07;;;;;;;;;;;;;;;13.49;65.87;98011.72;1088831;54;1018;-80
2023/10/26 01:58:08;;;;;;;;;;;;;;;13.45;65.83;98016.72;1088835;47;1384;-80
2023/10/26 01:59:14;;;;;;;;;;;;;;;13.46;65.68;98014.88;1088840;54;1029;-82
2023/10/26 02:07:09;;;;;;;;;;;;;;;13.44;66.24;98015.06;1088994;46;966;-83
2023/10/26 02:08:24;;;;;;;;;;;;;;;13.37;66.36;98011.56;1088759;54;1040;-82
2023/10/26 02:09:30;;;;;;;;;;;;;;;13.29;66.26;98015.28;1088664;47;1443;-83
2023/10/26 02:11:04;;;;;;;;;;;;;;;13.27;66.39;98012.03;1088798;47;1579;-81
2023/10/26 02:12:18;;;;;;;;;;;;;;;13.37;66.13;98016.91;1088667;47;1003;-85
2023/10/26 02:13:22;;;;;;;;;;;;;;;13.31;66.41;98015.91;1088713;47;962;-81
2023/10/26 02:15:57;;;;;;;;;;;;;;;13.36;66.11;98013.44;1088693;47;991;-81
2023/10/26 02:20:34;;;;;;;;;;;;;;;13.38;66.25;98015.88;1088557;54;1236;-86
2023/10/26 02:21:35;;;;;;;;;;;;;;;13.32;66.33;98016.75;1088945;47;981;-84
2023/10/26 02:22:36;;;;;;;;;;;;;;;13.30;66.50;98024.19;1088888;47;1009;-84
2023/10/26 02:23:39;;;;;;;;;;;;;;;13.23;66.53;98022.31;1088774;46;967;-85
2023/10/26 02:24:41;;;;;;;;;;;;;;;13.27;66.42;98022.75;1088570;47;1084;-83
2023/10/26 02:25:44;;;;;;;;;;;;;;;13.31;66.61;98028.50;1088615;54;1086;-82
2023/10/26 02:26:45;;;;;;;;;;;;;;;13.30;66.30;98026.88;1088434;46;1859;-80
2023/10/26 02:27:57;;;;;;;;;;;;;;;13.23;66.76;98019.63;1088301;54;994;-80
2023/10/26 02:29:27;;;;;;;;;;;;;;;13.23;66.54;98021.50;1088341;54;1073;-84
2023/10/26 02:30:43;;;;;;;;;;;;;;;13.29;66.64;98025.22;1088702;54;1021;-84
2023/10/26 02:31:52;;;;;;;;;;;;;;;13.29;66.60;98020.66;1088496;54;962;-79
2023/10/26 02:33:14;;;;;;;;;;;;;;;13.21;66.88;98021.75;1088119;47;968;-83
2023/10/26 02:37:46;;;;;;;;;;;;;;;13.24;66.77;98023.97;1088647;54;1468;-84
2023/10/26 02:38:51;;;;;;;;;;;;;;;13.28;66.75;98021.69;1088689;54;1051;-83
2023/10/26 02:41:11;;;;;;;;;;;;;;;13.33;66.95;98027.25;1087935;47;873;-80
2023/10/26 02:42:35;;;;;;;;;;;;;;;13.31;66.64;98021.28;1087927;47;1009;-80
2023/10/26 02:43:38;;;;;;;;;;;;;;;13.27;66.78;98018.19;1087881;47;981;-79
2023/10/26 02:44:39;;;;;;;;;;;;;;;13.26;67.04;98029.16;1087901;54;1099;-80
2023/10/26 02:45:44;;;;;;;;;;;;;;;13.20;67.22;98017.41;1088436;54;1070;-83
2023/10/26 02:46:45;;;;;;;;;;;;;;;13.14;67.36;98028.97;1088031;47;1900;-82
2023/10/26 02:47:49;;;;;;;;;;;;;;;13.21;67.40;98018.22;1087912;47;867;-81
2023/10/26 02:48:50;;;;;;;;;;;;;;;13.19;67.44;98021.13;1087936;46;922;-81
2023/10/26 02:49:54;;;;;;;;;;;;;;;13.16;67.36;98026.91;1087874;47;956;-81
2023/10/26 02:50:55;;;;;;;;;;;;;;;13.13;67.59;98029.97;1088282;47;951;-82
2023/10/26 02:51:59;;;;;;;;;;;;;;;13.13;67.56;98027.31;1088436;47;953;-84
2023/10/26 02:52:59;;;;;;;;;;;;;;;13.16;67.81;98020.72;1088216;54;940;-82
2023/10/26 02:54:05;;;;;;;;;;;;;;;13.09;67.88;98024.22;1088415;54;1002;-82
2023/10/26 02:55:07;;;;;;;;;;;;;;;13.18;67.59;98016.78;1088641;54;1018;-83
2023/10/26 02:56:08;;;;;;;;;;;;;;;13.12;67.98;98020.31;1088493;47;1361;-82
2023/10/26 02:58:27;;;;;;;;;;;;;;;13.07;68.01;98029.00;1088667;47;914;-85
2023/10/26 03:10:22;;;;;;;;;;;;;;;13.17;67.99;98036.59;1088325;54;1091;-81
2023/10/26 03:11:23;;;;;;;;;;;;;;;13.11;67.84;98034.75;1089047;54;927;-83
2023/10/26 03:34:10;;;;;;;;;;;;;;;13.23;67.11;98029.56;1088875;54;721;-82
2023/10/26 03:35:10;;;;;;;;;;;;;;;13.13;67.26;98037.22;1088615;47;915;-82
2023/10/26 03:36:17;;;;;;;;;;;;;;;13.14;67.28;98028.97;1088585;54;1227;-83
2023/10/26 03:37:18;;;;;;;;;;;;;;;13.15;67.32;98035.16;1088677;47;962;-83
2023/10/26 03:38:21;;;;;;;;;;;;;;;13.22;67.22;98033.28;1088641;54;884;-83
2023/10/26 03:39:23;;;;;;;;;;;;;;;13.33;66.99;98035.31;1088396;47;951;-82
2023/10/26 03:40:28;;;;;;;;;;;;;;;13.31;67.13;98036.56;1088624;54;974;-84
2023/10/26 03:41:29;;;;;;;;;;;;;;;13.29;67.02;98038.63;1088708;54;970;-81
2023/10/26 03:42:33;;;;;;;;;;;;;;;13.20;67.05;98032.66;1088429;47;1105;-80
2023/10/26 03:43:34;;;;;;;;;;;;;;;13.18;67.26;98035.56;1088324;46;955;-80
2023/10/26 03:44:37;;;;;;;;;;;;;;;13.22;67.03;98027.91;1088295;54;922;-81
2023/10/26 03:45:38;;;;;;;;;;;;;;;13.20;67.12;98028.13;1088481;47;983;-81
2023/10/26 03:46:41;;;;;;;;;;;;;;;13.22;67.04;98031.44;1088173;47;1861;-79
2023/10/26 03:47:42;;;;;;;;;;;;;;;13.30;66.98;98037.59;1088362;54;926;-81
2023/10/26 03:48:42;;;;;;;;;;;;;;;13.38;66.65;98032.81;1088279;47;972;-82
2023/10/26 03:49:51;;;;;;;;;;;;;;;13.35;66.82;98035.09;1088378;54;980;-81
2023/10/26 03:50:52;;;;;;;;;;;;;;;13.26;66.82;98031.84;1088364;54;924;-81
2023/10/26 03:51:55;;;;;;;;;;;;;;;13.34;66.92;98033.44;1088312;47;953;-82
2023/10/26 03:52:56;;;;;;;;;;;;;;;13.37;67.01;98028.47;1088495;54;999;-81
2023/10/26 03:53:59;;;;;;;;;;;;;;;13.26;66.82;98032.66;1088295;54;1001;-79
2023/10/26 03:55:00;;;;;;;;;;;;;;;13.20;67.24;98038.03;1088051;47;1004;-78
2023/10/26 03:56:04;;;;;;;;;;;;;;;13.29;66.86;98035.94;1088481;54;1301;-81
2023/10/26 03:57:06;;;;;;;;;;;;;;;13.21;67.10;98042.34;1088634;54;998;-82
2023/10/26 03:58:11;;;;;;;;;;;;;;;13.15;67.17;98035.97;1088372;47;1136;-82
2023/10/26 03:59:12;;;;;;;;;;;;;;;13.04;67.61;98040.13;1087866;47;1489;-82
2023/10/26 04:00:16;;;;;;;;;;;;;;;13.14;67.41;98034.31;1088064;47;1189;-81
2023/10/26 04:01:17;;;;;;;;;;;;;;;13.13;67.59;98037.22;1088243;47;1023;-81
2023/10/26 07:32:30;;;;;;;;;;;;;;;13.08;65.84;98002.97;1084440;47;1755;-78
2023/10/26 07:33:30;;;;;;;;;;;;;;;13.09;65.59;98010.00;1085501;47;1464;-78
2023/10/26 07:34:33;;;;;;;;;;;;;;;13.12;65.58;98004.22;1086025;54;1113;-78
2023/10/26 07:35:40;;;;;;;;;;;;;;;13.18;65.66;98003.38;1087317;54;1054;-79
2023/10/26 07:36:44;;;;;;;;;;;;;;;13.18;65.47;97998.00;1087093;47;1318;-78
2023/10/26 07:37:45;;;;;;;;;;;;;;;13.16;65.39;98004.63;1087190;54;1148;-78
2023/10/26 07:38:48;;;;;;;;;;;;;;;13.18;65.67;98005.22;1086335;47;1030;-79
2023/10/26 07:39:50;;;;;;;;;;;;;;;13.17;65.76;97996.34;1087223;47;1192;-80
2023/10/26 07:40:52;;;;;;;;;;;;;;;13.04;65.79;97999.91;1088229;54;1079;-81
2023/10/26 07:41:55;;;;;;;;;;;;;;;13.10;65.94;97996.38;1087815;47;1071;-78
2023/10/26 07:42:56;;;;;;;;;;;;;;;13.11;65.48;97998.03;1088138;54;1153;-81
2023/10/26 07:44:00;;;;;;;;;;;;;;;13.14;65.64;97999.44;1088053;54;1191;-79
2023/10/26 07:45:01;;;;;;;;;;;;;;;13.08;65.73;98001.13;1087686;54;1077;-80
2023/10/26 07:46:01;;;;;;;;;;;;;;;13.06;65.59;97995.16;1087568;54;1197;-80
2023/10/26 07:47:08;;;;;;;;;;;;;;;13.10;65.77;97998.25;1088338;54;1074;-80
2023/10/26 07:48:11;;;;;;;;;;;;;;;13.05;65.90;97995.34;1088582;54;1095;-77
2023/10/26 07:49:15;;;;;;;;;;;;;;;13.06;66.25;97997.84;1086358;54;1193;-79
2023/10/26 07:50:19;;;;;;;;;;;;;;;13.12;65.66;97998.84;1087075;51;1169;-78
2023/10/26 07:51:23;;;;;;;;;;;;;;;13.02;66.27;97993.91;1087867;47;1045;-78
2023/10/26 07:52:25;;;;;;;;;;;;;;;13.10;65.90;97993.69;1088391;54;1199;-78
2023/10/26 07:53:39;;;;;;;;;;;;;;;13.09;66.16;97993.91;1087820;54;1196;-79
2023/10/26 07:54:40;;;;;;;;;;;;;;;13.09;66.00;97993.91;1088409;54;1157;-80
2023/10/26 07:55:43;;;;;;;;;;;;;;;13.00;66.43;97995.16;1087815;47;1000;-81
2023/10/26 07:56:45;;;;;;;;;;;;;;;12.94;66.48;97984.22;1087920;47;1387;-81
2023/10/26 07:57:49;;;;;;;;;;;;;;;12.92;66.45;97997.06;1088564;46;1078;-77
2023/10/26 07:58:49;;;;;;;;;;;;;;;12.89;66.15;98000.16;1088617;54;960;-77
2023/10/26 07:59:53;;;;;;;;;;;;;;;12.86;66.61;97995.19;1088089;54;1033;-80
2023/10/26 08:01:07;;;;;;;;;;;;;;;12.90;66.61;98001.78;1087884;47;1067;-80
2023/10/26 08:02:16;;;;;;;;;;;;;;;12.86;66.30;97994.38;1088613;54;1125;-82
2023/10/26 08:03:19;;;;;;;;;;;;;;;12.98;66.24;97997.22;1088445;47;1061;-77
2023/10/26 08:04:20;;;;;;;;;;;;;;;13.00;66.18;97998.66;1088522;54;993;-77
2023/10/26 08:05:23;;;;;;;;;;;;;;;13.04;66.14;97996.38;1088437;54;1113;-79
2023/10/26 08:06:24;;;;;;;;;;;;;;;13.14;66.00;97998.63;1087594;54;1330;-79
2023/10/26 08:07:27;;;;;;;;;;;;;;;13.07;65.96;98001.34;1087082;47;959;-81
2023/10/26 08:08:28;;;;;;;;;;;;;;;13.15;66.07;97997.59;1087131;47;1869;-80
2023/10/26 08:09:34;;;;;;;;;;;;;;;13.08;66.18;98000.31;1087007;47;1231;-77
2023/10/26 08:10:36;;;;;;;;;;;;;;;13.11;65.78;97998.03;1088202;54;883;-77
2023/10/26 08:11:37;;;;;;;;;;;;;;;13.18;65.98;97991.78;1088233;47;954;-81
2023/10/26 08:12:40;;;;;;;;;;;;;;;13.14;66.07;97990.59;1087938;46;1133;-80
2023/10/26 08:13:41;;;;;;;;;;;;;;;13.14;65.79;97987.91;1087759;47;1082;-80
2023/10/26 08:14:44;;;;;;;;;;;;;;;13.23;65.80;97986.63;1086473;47;1157;-81
2023/10/26 08:15:45;;;;;;;;;;;;;;;13.20;65.75;97995.94;1086736;54;1128;-80
2023/10/26 08:16:46;;;;;;;;;;;;;;;13.29;65.46;97995.69;1085470;54;1433;-79
2023/10/26 08:17:49;;;;;;;;;;;;;;;13.30;65.36;97991.97;1085107;54;1175;-79
2023/10/26 08:18:52;;;;;;;;;;;;;;;13.37;65.15;97993.59;1086282;47;1019;-79
2023/10/26 08:19:55;;;;;;;;;;;;;;;13.38;65.52;97997.09;1087193;54;1161;-79
2023/10/26 08:20:56;;;;;;;;;;;;;;;13.40;65.47;97987.03;1086535;54;1176;-79
2023/10/26 08:21:59;;;;;;;;;;;;;;;13.41;65.38;97985.97;1085696;54;1070;-79
2023/10/26 08:23:02;;;;;;;;;;;;;;;13.29;65.35;97988.47;1086413;54;1041;-77
2023/10/26 08:24:05;;;;;;;;;;;;;;;13.27;65.83;97990.56;1086587;47;1087;-79
2023/10/26 08:25:06;;;;;;;;;;;;;;;13.37;65.50;97993.59;1085784;54;1101;-79
2023/10/26 08:26:10;;;;;;;;;;;;;;;13.29;65.63;97993.81;1086795;47;1325;-80
2023/10/26 08:27:11;;;;;;;;;;;;;;;13.33;65.71;97996.91;1086821;54;1410;-80
2023/10/26 08:28:15;;;;;;;;;;;;;;;13.20;65.71;97990.56;1087122;54;1094;-80
2023/10/26 08:29:15;;;;;;;;;;;;;;;13.18;66.05;97987.28;1088175;54;1844;-80
2023/10/26 08:30:19;;;;;;;;;;;;;;;13.18;66.06;97991.78;1087257;54;1040;-79
2023/10/26 08:31:19;;;;;;;;;;;;;;;13.16;66.04;97983.97;1087152;47;1305;-79
2023/10/26 08:32:20;;;;;;;;;;;;;;;13.07;66.64;97993.28;1087690;47;1082;-80
2023/10/26 08:33:23;;;;;;;;;;;;;;;13.13;66.64;97994.31;1086736;54;1224;-78
2023/10/26 08:34:27;;;;;;;;;;;;;;;13.17;66.52;97999.03;1087300;54;1142;-81
2023/10/26 08:35:31;;;;;;;;;;;;;;;13.12;66.51;97993.50;1087974;47;1083;-79
2023/10/26 08:36:31;;;;;;;;;;;;;;;13.08;66.54;97986.88;1088440;54;1338;-77
2023/10/26 08:37:35;;;;;;;;;;;;;;;13.11;66.47;97989.97;1088109;47;1034;-79
2023/10/26 08:38:36;;;;;;;;;;;;;;;13.22;66.28;97983.13;1088492;46;863;-77
2023/10/26 08:39:36;;;;;;;;;;;;;;;13.28;66.00;97981.44;1087955;47;896;-81
2023/10/26 08:40:40;;;;;;;;;;;;;;;13.28;65.96;97981.44;1088008;47;1126;-81
2023/10/26 08:41:42;;;;;;;;;;;;;;;13.26;65.97;97988.91;1087758;47;1284;-81
2023/10/26 08:42:46;;;;;;;;;;;;;;;13.19;66.11;97993.44;1088551;54;1542;-78
2023/10/26 08:43:47;;;;;;;;;;;;;;;13.22;65.83;97993.03;1088433;47;1023;-82
2023/10/26 08:44:51;;;;;;;;;;;;;;;13.30;65.93;97994.66;1087990;54;1260;-81
2023/10/26 08:45:52;;;;;;;;;;;;;;;13.39;65.61;97985.38;1088892;46;963;-80
2023/10/26 08:47:01;;;;;;;;;;;;;;;13.46;65.63;97983.47;1088553;46;1176;-83
2023/10/26 08:48:02;;;;;;;;;;;;;;;13.52;65.61;97981.78;1088548;46;1089;-79
2023/10/26 08:49:09;;;;;;;;;;;;;;;13.55;65.44;97976.00;1088184;47;1959;-79
2023/10/26 08:50:15;;;;;;;;;;;;;;;13.63;65.12;97980.28;1088547;54;1047;-83
2023/10/26 08:51:19;;;;;;;;;;;;;;;13.72;65.24;97984.34;1088581;54;1018;-80
2023/10/26 08:52:19;;;;;;;;;;;;;;;13.77;65.04;97984.56;1088389;47;1082;-79
2023/10/26 08:53:24;;;;;;;;;;;;;;;13.82;64.99;97994.66;1088726;47;999;-81
2023/10/26 08:56:05;;;;;;;;;;;;;;;13.78;64.82;97990.72;1088507;46;1286;-80
2023/10/26 08:57:07;;;;;;;;;;;;;;;13.81;64.60;97999.19;1088261;47;1050;-81
2023/10/26 08:59:16;;;;;;;;;;;;;;;13.78;64.82;97996.94;1088510;54;897;-82
2023/10/26 09:00:31;;;;;;;;;;;;;;;13.80;65.04;98004.78;1087877;47;1187;-83
2023/10/26 09:05:19;;;;;;;;;;;;;;;13.79;65.11;97995.88;1088449;46;1128;-81
2023/10/26 09:06:22;;;;;;;;;;;;;;;13.74;65.39;97995.72;1088495;54;1371;-80
2023/10/26 09:07:29;;;;;;;;;;;;;;;13.70;65.29;97995.31;1088542;54;989;-82
2023/10/26 09:08:31;;;;;;;;;;;;;;;13.70;65.15;97994.47;1088700;47;979;-83
2023/10/26 09:09:46;;;;;;;;;;;;;;;13.82;64.97;97987.41;1088466;47;1850;-82
2023/10/26 09:10:46;;;;;;;;;;;;;;;13.89;65.17;97985.47;1088334;54;945;-80
2023/10/26 09:11:51;;;;;;;;;;;;;;;13.89;65.19;97980.13;1088373;54;1031;-81
2023/10/26 09:12:58;;;;;;;;;;;;;;;13.78;65.10;97982.69;1088006;54;1169;-81
2023/10/26 09:14:13;;;;;;;;;;;;;;;13.66;65.13;97988.72;1088277;54;1130;-81
2023/10/26 09:15:14;;;;;;;;;;;;;;;13.65;65.35;97983.59;1088453;46;1079;-81
2023/10/26 09:16:37;;;;;;;;;;;;;;;13.57;65.22;97990.00;1088321;54;1235;-81
2023/10/26 09:17:39;;;;;;;;;;;;;;;13.52;65.74;97987.97;1088578;47;973;-83
2023/10/26 09:18:51;;;;;;;;;;;;;;;13.60;65.20;97983.41;1088944;54;993;-79
2023/10/26 09:19:51;;;;;;;;;;;;;;;13.64;65.38;97988.13;1088709;47;919;-84
2023/10/26 09:22:41;;;;;;;;;;;;;;;13.86;65.12;97999.38;1088564;46;990;-81
2023/10/26 09:25:27;;;;;;;;;;;;;;;13.76;65.19;98007.06;1088510;47;878;-79
2023/10/26 09:26:38;;;;;;;;;;;;;;;13.73;65.32;98007.50;1088595;54;1298;-79
2023/10/26 09:27:42;;;;;;;;;;;;;;;13.73;65.00;98018.22;1088747;54;1014;-82
2023/10/26 09:28:49;;;;;;;;;;;;;;;13.65;65.29;98026.53;1088571;47;990;-83
2023/10/26 09:29:59;;;;;;;;;;;;;;;13.56;65.25;98026.78;1088518;46;987;-80
2023/10/26 09:31:05;;;;;;;;;;;;;;;13.57;66.02;98039.19;1088420;47;1014;-80
2023/10/26 09:32:13;;;;;;;;;;;;;;;13.47;66.10;98036.13;1088427;47;1007;-81
2023/10/26 09:46:10;;;;;;;;;;;;;;;13.67;67.42;98048.63;1088338;54;1133;-84
2023/10/26 09:47:25;;;;;;;;;;;;;;;13.71;67.67;98044.47;1088971;47;1003;-83
2023/10/26 09:48:51;;;;;;;;;;;;;;;13.57;67.98;98055.28;1088457;54;1007;-80
2023/10/26 09:51:40;;;;;;;;;;;;;;;13.45;69.29;98067.72;1088507;47;898;-80
2023/10/26 09:58:26;;;;;;;;;;;;;;;12.80;74.07;98095.25;1088927;54;686;-82
2023/10/26 09:59:29;;;;;;;;;;;;;;;12.80;73.81;98087.19;1088502;47;965;-80
2023/10/26 10:00:34;;;;;;;;;;;;;;;12.70;74.52;98086.78;1087359;47;948;-78
2023/10/26 10:01:45;;;;;;;;;;;;;;;12.66;75.41;98090.94;1087698;54;1457;-80
2023/10/26 10:03:08;;;;;;;;;;;;;;;12.62;75.59;98079.78;1088696;54;1156;-77
2023/10/26 10:04:09;;;;;;;;;;;;;;;12.63;75.18;98071.53;1086535;54;1180;-81
2023/10/26 10:05:27;;;;;;;;;;;;;;;12.72;75.09;98076.69;1087516;54;1059;-80
2023/10/26 10:06:43;;;;;;;;;;;;;;;12.75;75.33;98078.97;1087968;54;1323;-77
2023/10/26 10:07:46;;;;;;;;;;;;;;;12.78;74.97;98063.28;1088156;54;1175;-79
2023/10/26 10:08:59;;;;;;;;;;;;;;;12.81;75.67;98062.03;1087884;47;1130;-77
2023/10/26 10:10:07;;;;;;;;;;;;;;;12.70;76.09;98070.69;1088168;54;976;-78
2023/10/26 10:11:14;;;;;;;;;;;;;;;12.63;76.30;98071.53;1086377;54;1159;-79
2023/10/26 10:12:31;;;;;;;;;;;;;;;12.58;76.49;98065.97;1087806;54;1145;-79
2023/10/26 10:13:38;;;;;;;;;;;;;;;12.55;77.04;98066.38;1087299;47;1094;-80
2023/10/26 10:14:54;;;;;;;;;;;;;;;12.58;76.96;98063.28;1086895;54;1034;-82
2023/10/26 10:15:58;;;;;;;;;;;;;;;12.59;77.09;98059.56;1087563;47;951;-80
2023/10/26 10:17:01;;;;;;;;;;;;;;;12.61;77.40;98045.97;1087877;54;1309;-80
2023/10/26 10:18:03;;;;;;;;;;;;;;;12.63;78.20;98047.41;1087163;54;985;-80
2023/10/26 10:19:18;;;;;;;;;;;;;;;12.65;77.75;98049.88;1086223;47;1026;-79
2023/10/26 10:20:29;;;;;;;;;;;;;;;12.64;78.40;98041.03;1086317;47;1186;-80
2023/10/26 10:21:36;;;;;;;;;;;;;;;12.63;78.18;98044.72;1086434;47;1074;-81
2023/10/26 10:22:47;;;;;;;;;;;;;;;12.64;78.39;98042.88;1088513;54;1094;-80
2023/10/26 10:23:50;;;;;;;;;;;;;;;12.68;78.25;98038.75;1088211;47;920;-79
2023/10/26 10:24:50;;;;;;;;;;;;;;;12.71;78.05;98034.81;1088333;47;989;-77
2023/10/26 10:25:59;;;;;;;;;;;;;;;12.73;78.15;98032.78;1087155;54;1098;-80
2023/10/26 10:27:13;;;;;;;;;;;;;;;12.76;78.10;98032.34;1088440;54;1309;-80
2023/10/26 10:28:14;;;;;;;;;;;;;;;12.84;77.92;98034.81;1087056;54;1145;-80
2023/10/26 10:29:21;;;;;;;;;;;;;;;12.94;77.79;98037.88;1086816;54;1857;-78
2023/10/26 10:30:27;;;;;;;;;;;;;;;13.03;77.39;98033.13;1088448;54;974;-77
2023/10/26 10:31:41;;;;;;;;;;;;;;;13.16;77.31;98036.81;1088278;47;971;-79
2023/10/26 10:32:51;;;;;;;;;;;;;;;13.22;77.19;98025.22;1087249;54;1188;-78
2023/10/26 10:34:05;;;;;;;;;;;;;;;13.33;76.36;98021.91;1088380;54;938;-77
2023/10/26 10:35:06;;;;;;;;;;;;;;;13.46;75.87;98025.59;1086378;54;1030;-79
2023/10/26 10:36:10;;;;;;;;;;;;;;;13.54;75.90;98025.34;1086557;47;1326;-81
2023/10/26 10:37:12;;;;;;;;;;;;;;;13.62;75.43;98016.22;1088147;47;1094;-81
2023/10/26 10:38:20;;;;;;;;;;;;;;;13.69;75.17;98025.91;1088270;47;1374;-82
2023/10/26 10:39:24;;;;;;;;;;;;;;;13.70;75.14;98021.34;1088425;54;954;-78
2023/10/26 10:40:25;;;;;;;;;;;;;;;13.75;74.80;98012.63;1088440;54;1013;-78
2023/10/26 10:41:37;;;;;;;;;;;;;;;13.79;74.77;98012.00;1087990;47;1035;-83
2023/10/26 10:42:38;;;;;;;;;;;;;;;13.84;74.13;98016.72;1088017;54;1034;-81
2023/10/26 10:43:43;;;;;;;;;;;;;;;13.87;74.26;98016.28;1088020;47;1130;-81
2023/10/26 10:44:44;;;;;;;;;;;;;;;13.93;74.09;98012.75;1088263;54;994;-81
2023/10/26 10:45:44;;;;;;;;;;;;;;;13.97;73.99;98011.28;1088450;54;956;-79
2023/10/26 10:46:49;;;;;;;;;;;;;;;13.99;73.81;98016.41;1087591;47;1398;-78
2023/10/26 10:47:53;;;;;;;;;;;;;;;14.02;73.44;98018.69;1087934;47;954;-78
2023/10/26 10:48:58;;;;;;;;;;;;;;;14.04;73.36;98021.97;1087941;47;976;-78
2023/10/26 10:50:15;;;;;;;;;;;;;;;14.03;73.73;98033.75;1087871;46;1848;-80
2023/10/26 10:51:16;;;;;;;;;;;;;;;13.97;74.18;98031.94;1088429;54;1117;-82
2023/10/26 10:52:20;;;;;;;;;;;;;;;13.93;74.24;98036.09;1087940;47;1352;-81
2023/10/26 10:53:21;;;;;;;;;;;;;;;13.81;74.68;98034.09;1088503;54;1165;-84
2023/10/26 10:54:25;;;;;;;;;;;;;;;13.82;75.22;98029.56;1088128;54;1159;-81
2023/10/26 10:55:27;;;;;;;;;;;;;;;13.81;75.29;98023.34;1087764;47;1079;-78
2023/10/26 10:56:28;;;;;;;;;;;;;;;13.83;75.37;98018.59;1088008;54;1373;-79
2023/10/26 10:57:32;;;;;;;;;;;;;;;13.84;75.01;98014.88;1087885;47;1129;-79
2023/10/26 10:58:35;;;;;;;;;;;;;;;13.88;75.15;98018.78;1088082;54;1051;-80
2023/10/26 10:59:39;;;;;;;;;;;;;;;13.89;74.97;98020.41;1087994;47;1073;-82
2023/10/26 11:00:43;;;;;;;;;;;;;;;13.77;76.34;98030.19;1088070;54;1062;-80
2023/10/26 11:01:48;;;;;;;;;;;;;;;13.61;77.16;98033.34;1087571;54;1026;-82
2023/10/26 11:02:49;;;;;;;;;;;;;;;13.55;77.54;98033.19;1087890;54;1220;-80
2023/10/26 11:04:06;;;;;;;;;;;;;;;13.56;77.90;98026.78;1087922;54;1093;-82